createdAt,value
2022-10-26T00:01:14.185Z,96328.84
2022-10-26T00:03:43.065Z,96357.00
2022-10-26T00:06:22.428Z,96350.72
2022-10-26T00:08:49.089Z,96338.47
2022-10-26T00:11:16.365Z,96363.38
2022-10-26T00:13:43.420Z,96343.78
2022-10-26T00:16:12.686Z,96347.88
2022-10-26T00:18:39.706Z,96354.63
2022-10-26T00:21:07.597Z,96339.78
2022-10-26T00:23:34.314Z,96300.41
2022-10-26T00:26:01.007Z,96329.69
2022-10-26T00:28:28.232Z,96302.19
2022-10-26T00:30:55.266Z,96293.69
2022-10-26T00:33:21.796Z,96306.47
2022-10-26T00:35:53.319Z,96305.13
2022-10-26T00:38:20.282Z,96306.63
2022-10-26T00:40:47.544Z,96310.44
2022-10-26T00:43:35.385Z,96326.38
2022-10-26T00:46:05.594Z,96372.00
2022-10-26T00:48:38.374Z,96376.84
2022-10-26T00:51:09.760Z,96355.38
2022-10-26T00:53:36.970Z,96352.03
2022-10-26T00:56:04.260Z,96381.75
2022-10-26T00:58:32.140Z,96412.94
2022-10-26T01:00:58.708Z,96410.34
2022-10-26T01:03:25.570Z,96401.88
2022-10-26T01:05:56.747Z,96404.06
2022-10-26T01:08:24.037Z,96395.50
2022-10-26T01:10:50.905Z,96407.31
2022-10-26T01:13:17.880Z,96384.66
2022-10-26T01:16:07.006Z,96395.84
2022-10-26T01:19:15.130Z,96386.94
2022-10-26T01:21:48.985Z,96381.22
2022-10-26T01:24:34.138Z,96394.97
2022-10-26T01:27:25.519Z,96415.75
2022-10-26T01:30:26.260Z,96394.66
2022-10-26T01:33:17.667Z,96360.44
2022-10-26T01:35:50.035Z,96376.34
2022-10-26T01:38:22.622Z,96380.03
2022-10-26T01:40:58.543Z,96350.03
2022-10-26T01:43:29.847Z,96343.69
2022-10-26T01:45:57.595Z,96372.31
2022-10-26T01:48:26.161Z,96372.75
2022-10-26T01:50:54.794Z,96347.50
2022-10-26T01:53:21.405Z,96305.56
2022-10-26T01:55:52.840Z,96304.47
2022-10-26T01:58:34.629Z,96312.78
2022-10-26T02:01:10.426Z,96323.63
2022-10-26T02:03:55.136Z,96361.09
2022-10-26T02:06:47.995Z,96355.34
2022-10-26T02:09:17.277Z,96383.69
2022-10-26T02:11:48.455Z,96366.34
2022-10-26T02:14:17.644Z,96373.03
2022-10-26T02:16:53.514Z,96369.94
2022-10-26T02:19:38.666Z,96384.69
2022-10-26T02:22:25.706Z,96373.09
2022-10-26T02:24:53.950Z,96377.34
2022-10-26T02:27:26.392Z,96362.59
2022-10-26T02:29:55.383Z,96363.72
2022-10-26T02:32:25.033Z,96351.00
2022-10-26T02:34:53.419Z,96361.06
2022-10-26T02:37:22.281Z,96349.09
2022-10-26T02:39:51.462Z,96331.88
2022-10-26T02:42:19.447Z,96312.44
2022-10-26T02:44:52.274Z,96317.19
2022-10-26T02:47:19.927Z,96315.50
2022-10-26T02:49:47.338Z,96305.97
2022-10-26T02:52:52.471Z,96296.81
2022-10-26T02:55:25.512Z,96299.63
2022-10-26T02:57:58.905Z,96302.97
2022-10-26T03:00:25.844Z,96304.22
2022-10-26T03:02:57.189Z,96302.06
2022-10-26T03:05:28.679Z,96292.91
2022-10-26T03:07:56.521Z,96283.75
2022-10-26T03:10:23.557Z,96289.03
2022-10-26T03:12:50.669Z,96287.09
2022-10-26T03:15:17.810Z,96284.84
2022-10-26T03:17:44.438Z,96259.22
2022-10-26T03:20:11.672Z,96254.78
2022-10-26T03:22:38.311Z,96243.81
2022-10-26T03:25:05.616Z,96307.00
2022-10-26T03:27:32.218Z,96310.34
2022-10-26T03:29:58.895Z,96304.91
2022-10-26T03:32:25.526Z,96264.69
2022-10-26T03:34:52.177Z,96252.47
2022-10-26T03:37:18.826Z,96282.25
2022-10-26T03:39:45.874Z,96306.81
2022-10-26T03:42:12.482Z,96290.13
2022-10-26T03:44:38.990Z,96264.88
2022-10-26T03:47:05.711Z,96260.84
2022-10-26T03:49:32.294Z,96242.31
2022-10-26T03:51:58.913Z,96218.63
2022-10-26T03:54:25.640Z,96204.59
2022-10-26T03:56:55.151Z,96220.28
2022-10-26T03:59:22.262Z,96225.06
2022-10-26T04:01:51.622Z,96213.56
2022-10-26T04:04:20.946Z,96195.03
2022-10-26T04:06:47.648Z,96217.94
2022-10-26T04:09:14.324Z,96238.34
2022-10-26T04:11:40.920Z,96242.03
2022-10-26T04:14:07.459Z,96236.41
2022-10-26T04:16:34.113Z,96219.72
2022-10-26T04:19:01.191Z,96208.88
2022-10-26T04:21:27.826Z,96214.41
2022-10-26T04:23:54.375Z,96237.81
2022-10-26T04:26:21.078Z,96225.84
2022-10-26T04:28:47.728Z,96232.91
2022-10-26T04:31:14.519Z,96264.44
2022-10-26T04:33:41.096Z,96252.53
2022-10-26T04:36:08.169Z,96216.88
2022-10-26T04:38:34.754Z,96216.09
2022-10-26T04:41:01.337Z,96206.06
2022-10-26T04:43:28.038Z,96203.06
2022-10-26T04:45:56.513Z,96193.72
2022-10-26T04:51:09.789Z,96195.56
2022-10-26T04:53:36.418Z,96222.31
2022-10-26T04:56:03.025Z,96220.16
2022-10-26T04:58:29.821Z,96208.31
2022-10-26T05:00:56.905Z,96211.59
2022-10-26T05:03:23.558Z,96220.22
2022-10-26T05:05:50.211Z,96223.56
2022-10-26T05:08:17.006Z,96251.81
2022-10-26T05:10:47.774Z,96238.84
2022-10-26T05:13:14.412Z,96222.91
2022-10-26T05:15:40.960Z,96229.22
2022-10-26T05:18:09.059Z,96216.19
2022-10-26T05:20:36.728Z,96193.41
2022-10-26T05:23:10.160Z,96184.41
2022-10-26T05:25:38.205Z,96227.88
2022-10-26T05:28:08.094Z,96223.44
2022-10-26T05:30:35.078Z,96210.38
2022-10-26T05:33:03.282Z,96234.09
2022-10-26T05:35:30.344Z,96214.38
2022-10-26T05:37:57.108Z,96221.50
2022-10-26T05:40:24.390Z,96206.28
2022-10-26T05:42:51.579Z,96199.66
2022-10-26T05:45:18.524Z,96200.50
2022-10-26T05:47:46.038Z,96192.34
2022-10-26T05:50:13.501Z,96199.66
2022-10-26T05:52:41.182Z,96200.72
2022-10-26T05:55:09.192Z,96171.47
2022-10-26T05:57:36.901Z,96174.38
2022-10-26T06:00:24.894Z,96208.53
2022-10-26T06:03:16.070Z,96200.31
2022-10-26T06:05:54.401Z,96211.81
2022-10-26T06:08:22.544Z,96211.81
2022-10-26T06:10:49.435Z,96202.19
2022-10-26T06:13:16.710Z,96202.25
2022-10-26T06:16:18.940Z,96214.91
2022-10-26T06:19:03.187Z,96190.47
2022-10-26T06:21:50.194Z,96229.94
2022-10-26T06:24:32.174Z,96198.72
2022-10-26T06:27:26.611Z,96205.84
2022-10-26T06:30:03.586Z,96211.81
2022-10-26T06:32:30.656Z,96212.53
2022-10-26T06:35:07.232Z,96208.84
2022-10-26T06:37:36.478Z,96201.81
2022-10-26T06:40:04.681Z,96213.72
2022-10-26T06:42:32.250Z,96219.69
2022-10-26T06:44:59.123Z,96234.97
2022-10-26T06:47:40.723Z,96238.38
2022-10-26T06:50:07.335Z,96251.34
2022-10-26T06:52:40.184Z,96255.44
2022-10-26T06:55:14.046Z,96240.22
2022-10-26T06:57:41.200Z,96241.72
2022-10-26T07:00:21.964Z,96255.09
2022-10-26T07:02:50.035Z,96245.09
2022-10-26T07:05:17.250Z,96236.94
2022-10-26T07:07:46.157Z,96268.63
2022-10-26T07:10:14.337Z,96251.56
2022-10-26T07:12:41.188Z,96248.69
2022-10-26T07:17:55.167Z,96219.03
2022-10-26T07:20:22.521Z,96214.56
2022-10-26T07:22:56.423Z,96228.34
2022-10-26T07:25:23.481Z,96246.56
2022-10-26T07:27:50.260Z,96247.66
2022-10-26T07:30:18.089Z,96246.72
2022-10-26T07:32:44.645Z,96266.44
2022-10-26T07:35:11.517Z,96278.38
2022-10-26T07:37:38.086Z,96281.75
2022-10-26T07:40:06.809Z,96290.88
2022-10-26T07:42:34.392Z,96261.69
2022-10-26T07:45:01.004Z,96271.13
2022-10-26T07:47:27.545Z,96279.53
2022-10-26T07:49:54.113Z,96291.38
2022-10-26T07:52:20.680Z,96287.03
2022-10-26T07:55:55.913Z,96287.31
2022-10-26T07:58:25.862Z,96334.38
2022-10-26T08:00:53.885Z,96273.03
2022-10-26T08:03:21.577Z,96284.47
2022-10-26T08:05:51.313Z,96297.06
2022-10-26T08:08:20.749Z,96327.56
2022-10-26T08:10:48.032Z,96364.69
2022-10-26T08:13:15.096Z,96397.53
2022-10-26T08:15:41.766Z,96400.38
2022-10-26T08:18:08.545Z,96381.88
2022-10-26T08:20:35.294Z,96402.81
2022-10-26T08:23:01.885Z,96425.81
2022-10-26T08:25:28.527Z,96449.53
2022-10-26T08:27:55.264Z,96456.03
2022-10-26T08:30:21.896Z,96463.41
2022-10-26T08:32:48.906Z,96450.19
2022-10-26T08:35:16.003Z,96423.97
2022-10-26T08:37:42.636Z,96430.72
2022-10-26T08:40:15.722Z,96430.00
2022-10-26T08:42:51.006Z,96458.44
2022-10-26T08:45:35.701Z,96458.75
2022-10-26T08:48:07.458Z,96488.91
2022-10-26T08:50:59.703Z,96494.78
2022-10-26T08:54:00.147Z,96498.66
2022-10-26T08:56:32.716Z,96482.44
2022-10-26T08:59:06.978Z,96470.53
2022-10-26T09:01:34.480Z,96463.41
2022-10-26T09:04:04.071Z,96434.28
2022-10-26T09:06:41.977Z,96445.47
2022-10-26T09:09:14.343Z,96420.72
2022-10-26T09:11:54.297Z,96433.53
2022-10-26T09:14:40.657Z,96489.88
2022-10-26T09:17:41.202Z,96489.94
2022-10-26T09:20:32.673Z,96529.16
2022-10-26T09:23:25.251Z,96518.53
2022-10-26T09:26:02.771Z,96530.75
2022-10-26T09:28:34.782Z,96541.94
2022-10-26T09:31:02.652Z,96727.53
2022-10-26T09:33:34.668Z,96697.41
2022-10-26T09:36:07.410Z,96703.94
2022-10-26T09:38:42.280Z,96731.16
2022-10-26T09:41:08.767Z,96750.06
2022-10-26T09:43:55.601Z,96742.63
2022-10-26T09:46:28.453Z,96717.97
2022-10-26T09:48:59.550Z,96705.31
2022-10-26T09:51:27.312Z,96709.28
2022-10-26T09:53:57.499Z,96708.56
2022-10-26T09:56:26.924Z,96679.22
2022-10-26T09:59:05.365Z,96668.47
2022-10-26T10:01:36.915Z,96686.34
2022-10-26T10:04:26.053Z,96705.81
2022-10-26T10:07:15.764Z,96743.84
2022-10-26T10:09:42.461Z,96717.22
2022-10-26T10:12:20.435Z,96768.09
2022-10-26T10:14:58.587Z,96750.25
2022-10-26T10:17:25.770Z,96757.13
2022-10-26T10:19:52.807Z,96761.28
2022-10-26T10:22:24.703Z,96777.19
2022-10-26T10:25:02.142Z,96769.91
2022-10-26T10:27:30.649Z,96748.28
2022-10-26T10:30:03.048Z,96818.50
2022-10-26T10:32:35.738Z,96823.28
2022-10-26T10:35:24.123Z,96992.06
2022-10-26T10:37:52.279Z,97051.31
2022-10-26T10:40:24.757Z,97117.31
2022-10-26T10:42:53.617Z,97080.41
2022-10-26T10:45:29.241Z,97059.81
2022-10-26T10:48:02.493Z,97142.41
2022-10-26T10:50:30.145Z,97153.41
2022-10-26T10:53:35.207Z,97320.19
2022-10-26T10:56:20.647Z,97314.88
2022-10-26T10:59:08.430Z,97172.31
2022-10-26T11:01:54.327Z,97351.59
2022-10-26T11:04:40.154Z,97399.09
2022-10-26T11:07:10.073Z,97426.34
2022-10-26T11:09:39.490Z,97448.28
2022-10-26T11:12:12.415Z,97463.63
2022-10-26T11:14:45.251Z,97402.81
2022-10-26T11:17:21.389Z,97451.31
2022-10-26T11:19:55.723Z,97564.44
2022-10-26T11:22:41.389Z,97508.53
2022-10-26T11:25:17.079Z,97526.00
2022-10-26T11:27:53.006Z,97522.28
2022-10-26T11:30:27.660Z,97583.00
2022-10-26T11:33:03.344Z,97445.97
2022-10-26T11:35:32.828Z,97552.69
2022-10-26T11:38:20.753Z,97574.31
2022-10-26T11:41:02.021Z,97526.34
2022-10-26T11:43:33.448Z,97555.38
2022-10-26T11:46:09.429Z,97602.53
2022-10-26T11:48:44.496Z,97591.81
2022-10-26T11:51:24.344Z,97624.59
2022-10-26T11:53:51.583Z,97624.28
2022-10-26T11:56:31.880Z,97631.88
2022-10-26T11:58:59.749Z,97652.75
2022-10-26T12:01:29.262Z,97649.72
2022-10-26T12:03:58.334Z,97651.66
2022-10-26T12:06:31.410Z,97708.56
2022-10-26T12:09:16.073Z,97673.13
2022-10-26T12:12:09.555Z,97627.59
2022-10-26T12:14:46.957Z,97643.38
2022-10-26T12:17:21.580Z,97701.94
2022-10-26T12:19:53.269Z,97711.44
2022-10-26T12:22:23.466Z,97725.00
2022-10-26T12:25:15.751Z,97721.09
2022-10-26T12:27:42.428Z,97794.50
2022-10-26T12:30:11.723Z,97774.41
2022-10-26T12:32:40.331Z,97753.75
2022-10-26T12:35:30.795Z,97740.91
2022-10-26T12:37:58.474Z,97742.84
2022-10-26T12:40:31.406Z,97726.53
2022-10-26T12:43:18.623Z,97773.91
2022-10-26T12:46:13.809Z,97799.97
2022-10-26T12:48:42.591Z,97741.78
2022-10-26T12:51:39.907Z,97790.84
2022-10-26T12:54:28.375Z,97773.41
2022-10-26T12:57:18.781Z,97806.78
2022-10-26T12:59:53.837Z,97800.72
2022-10-26T13:02:56.962Z,97818.41
2022-10-26T13:05:42.634Z,97798.69
2022-10-26T13:08:11.038Z,97855.94
2022-10-26T13:10:41.147Z,97823.25
2022-10-26T13:13:08.438Z,97824.78
2022-10-26T13:15:51.805Z,97835.16
2022-10-26T13:18:20.343Z,97812.03
2022-10-26T13:21:08.535Z,97835.38
2022-10-26T13:23:40.870Z,97865.09
2022-10-26T13:26:16.484Z,97876.75
2022-10-26T13:28:46.555Z,97855.88
2022-10-26T13:31:31.584Z,97852.47
2022-10-26T13:33:58.166Z,97827.91
2022-10-26T13:36:36.717Z,97831.22
2022-10-26T13:39:10.022Z,97823.28
2022-10-26T13:41:40.123Z,97825.66
2022-10-26T13:44:16.662Z,97742.31
2022-10-26T13:46:46.706Z,97810.69
2022-10-26T13:49:24.613Z,97782.25
2022-10-26T13:51:53.134Z,97825.72
2022-10-26T13:54:27.045Z,97833.16
2022-10-26T13:57:08.259Z,97850.50
2022-10-26T13:59:39.508Z,97868.41
2022-10-26T14:02:27.559Z,97863.72
2022-10-26T14:05:01.004Z,97826.19
2022-10-26T14:07:43.769Z,97789.47
2022-10-26T14:10:32.965Z,97796.16
2022-10-26T14:13:00.773Z,97792.13
2022-10-26T14:15:30.969Z,97817.84
2022-10-26T14:17:59.813Z,97762.28
2022-10-26T14:20:28.563Z,97744.50
2022-10-26T14:22:55.120Z,97781.84
2022-10-26T14:25:36.208Z,97794.88
2022-10-26T14:28:31.769Z,97786.38
2022-10-26T14:31:15.108Z,97825.63
2022-10-26T14:33:44.585Z,97783.56
2022-10-26T14:36:11.849Z,97789.69
2022-10-26T14:38:51.691Z,97780.28
2022-10-26T14:41:18.925Z,97804.50
2022-10-26T14:43:46.110Z,97803.00
2022-10-26T14:46:17.647Z,97816.44
2022-10-26T14:48:56.569Z,97802.84
2022-10-26T14:51:34.261Z,97783.88
2022-10-26T14:54:02.648Z,97794.13
2022-10-26T14:56:35.056Z,97773.69
2022-10-26T14:59:12.194Z,97703.97
2022-10-26T15:01:49.806Z,97739.88
2022-10-26T15:04:40.264Z,97755.88
2022-10-26T15:07:12.619Z,97765.47
2022-10-26T15:09:46.650Z,97751.69
2022-10-26T15:12:31.479Z,97749.56
2022-10-26T15:15:07.380Z,97722.72
2022-10-26T15:17:40.426Z,97729.75
2022-10-26T15:20:14.327Z,97721.81
2022-10-26T15:22:42.121Z,97708.50
2022-10-26T15:25:20.604Z,97706.28
2022-10-26T15:27:48.320Z,97703.91
2022-10-26T15:30:28.043Z,97680.03
2022-10-26T15:32:55.552Z,97679.22
2022-10-26T15:35:30.471Z,97676.13
2022-10-26T15:37:58.287Z,97678.28
2022-10-26T15:43:12.914Z,97638.50
2022-10-26T15:45:52.157Z,97614.66
2022-10-26T15:48:25.684Z,97604.31
2022-10-26T15:50:52.478Z,97590.44
2022-10-26T15:53:27.488Z,97562.72
2022-10-26T15:55:56.500Z,97580.81
2022-10-26T15:58:23.572Z,97581.16
2022-10-26T16:00:50.227Z,97519.31
2022-10-26T16:03:24.934Z,97527.75
2022-10-26T16:06:02.205Z,97510.69
2022-10-26T16:08:31.412Z,97507.63
2022-10-26T16:10:58.119Z,97490.94
2022-10-26T16:13:24.676Z,97491.03
2022-10-26T16:15:51.223Z,97476.13
2022-10-26T16:18:17.810Z,97459.56
2022-10-26T16:20:47.403Z,97467.38
2022-10-26T16:23:14.007Z,97474.16
2022-10-26T16:25:43.636Z,97456.78
2022-10-26T16:28:16.336Z,97435.81
2022-10-26T16:30:43.771Z,97443.03
2022-10-26T16:33:10.389Z,97433.53
2022-10-26T16:35:37.126Z,97416.19
2022-10-26T16:38:03.745Z,97425.22
2022-10-26T16:40:31.082Z,97419.13
2022-10-26T16:42:57.691Z,97417.03
2022-10-26T16:45:24.327Z,97379.56
2022-10-26T16:47:51.215Z,97357.66
2022-10-26T16:50:21.204Z,97364.13
2022-10-26T16:52:47.852Z,97358.41
2022-10-26T16:55:14.523Z,97374.19
2022-10-26T16:57:41.550Z,97365.53
2022-10-26T17:00:08.532Z,97358.88
2022-10-26T17:02:35.375Z,97347.59
2022-10-26T17:05:05.932Z,97310.75
2022-10-26T17:07:34.320Z,97281.97
2022-10-26T17:10:01.048Z,97272.75
2022-10-26T17:15:17.282Z,97231.31
2022-10-26T17:17:46.466Z,97256.88
2022-10-26T17:20:13.137Z,97240.66
2022-10-26T17:22:39.698Z,97257.41
2022-10-26T17:25:06.716Z,97228.19
2022-10-26T17:27:33.337Z,97223.22
2022-10-26T17:30:00.006Z,97221.72
2022-10-26T17:32:26.591Z,97229.09
2022-10-26T17:34:53.136Z,97239.91
2022-10-26T17:37:19.868Z,97245.84
2022-10-26T17:39:46.497Z,97232.16
2022-10-26T17:42:13.137Z,97233.56
2022-10-26T17:44:39.680Z,97235.00
2022-10-26T17:47:06.239Z,97243.91
2022-10-26T17:49:35.995Z,97231.53
2022-10-26T17:52:03.939Z,97221.47
2022-10-26T17:54:30.567Z,97209.75
2022-10-26T17:56:57.146Z,97214.94
2022-10-26T17:59:23.718Z,97209.41
2022-10-26T18:01:50.338Z,97220.59
2022-10-26T18:04:17.318Z,97215.63
2022-10-26T18:06:43.861Z,97214.16
2022-10-26T18:09:10.536Z,97207.13
2022-10-26T18:11:37.098Z,97199.63
2022-10-26T18:14:04.222Z,97203.41
2022-10-26T18:16:31.265Z,97211.84
2022-10-26T18:19:01.631Z,97221.69
2022-10-26T18:21:30.555Z,97234.81
2022-10-26T18:23:57.228Z,97240.88
2022-10-26T18:26:26.583Z,97254.31
2022-10-26T18:28:55.044Z,97257.31
2022-10-26T18:31:23.499Z,97259.78
2022-10-26T18:34:01.052Z,97237.63
2022-10-26T18:36:28.610Z,97248.13
2022-10-26T18:38:55.678Z,97275.53
2022-10-26T18:41:23.780Z,97276.16
2022-10-26T18:43:52.622Z,97313.97
2022-10-26T18:46:24.462Z,97350.66
2022-10-26T18:48:52.070Z,97383.50
2022-10-26T18:51:28.726Z,97420.22
2022-10-26T18:53:56.686Z,97447.13
2022-10-26T18:56:24.999Z,97480.22
2022-10-26T18:58:54.046Z,97529.03
2022-10-26T19:01:29.071Z,97556.25
2022-10-26T19:03:58.493Z,97579.84
2022-10-26T19:06:26.353Z,97586.59
2022-10-26T19:08:53.497Z,97610.81
2022-10-26T19:11:22.213Z,97585.28
2022-10-26T19:13:50.331Z,97601.03
2022-10-26T19:16:40.367Z,97612.47
2022-10-26T19:19:10.596Z,97599.78
2022-10-26T19:21:37.452Z,97563.53
2022-10-26T19:24:04.214Z,97530.97
2022-10-26T19:26:36.922Z,97478.47
2022-10-26T19:29:06.677Z,97418.69
2022-10-26T19:31:34.431Z,97338.84
2022-10-26T19:34:01.938Z,97315.25
2022-10-26T19:36:29.193Z,97266.63
2022-10-26T19:38:56.308Z,97265.25
2022-10-26T19:41:24.021Z,97267.34
2022-10-26T19:43:51.019Z,97263.88
2022-10-26T19:46:21.241Z,97234.59
2022-10-26T19:48:49.793Z,97241.31
2022-10-26T19:51:16.616Z,97245.06
2022-10-26T19:53:43.348Z,97244.50
2022-10-26T19:56:13.377Z,97246.72
2022-10-26T19:58:44.595Z,97249.91
2022-10-26T20:01:13.204Z,97242.19
2022-10-26T20:03:39.841Z,97234.78
2022-10-26T20:06:12.773Z,97247.53
2022-10-26T20:08:44.683Z,97253.09
2022-10-26T20:11:14.825Z,97255.72
2022-10-26T20:13:43.355Z,97265.69
2022-10-26T20:16:10.573Z,97252.34
2022-10-26T20:18:37.174Z,97255.97
2022-10-26T20:21:11.438Z,97244.84
2022-10-26T20:23:37.982Z,97240.03
2022-10-26T20:28:51.523Z,97237.88
2022-10-26T20:31:18.464Z,97235.66
2022-10-26T20:33:44.997Z,97233.34
2022-10-26T20:36:11.538Z,97247.22
2022-10-26T20:38:39.435Z,97239.31
2022-10-26T20:41:09.370Z,97245.13
2022-10-26T20:43:39.338Z,97280.19
2022-10-26T20:46:10.367Z,97265.06
2022-10-26T20:48:38.780Z,97281.66
2022-10-26T20:51:39.939Z,97255.81
2022-10-26T20:54:33.239Z,97231.53
2022-10-26T20:57:02.126Z,97277.00
2022-10-26T20:59:39.670Z,97278.09
2022-10-26T21:02:09.863Z,97251.50
2022-10-26T21:04:36.618Z,97238.75
2022-10-26T21:07:03.180Z,97236.19
2022-10-26T21:09:32.935Z,97269.19
2022-10-26T21:12:03.090Z,97249.94
2022-10-26T21:14:29.684Z,97303.81
2022-10-26T21:16:56.228Z,97261.03
2022-10-26T21:19:22.816Z,97225.78
2022-10-26T21:21:49.384Z,97219.34
2022-10-26T21:24:15.946Z,97217.34
2022-10-26T21:26:42.473Z,97191.19
2022-10-26T21:29:10.364Z,97202.06
2022-10-26T21:31:36.896Z,97195.81
2022-10-26T21:34:04.646Z,97198.69
2022-10-26T21:36:31.361Z,97201.50
2022-10-26T21:38:57.919Z,97207.16
2022-10-26T21:44:24.671Z,97200.72
2022-10-26T21:46:57.819Z,97206.06
2022-10-26T21:49:24.351Z,97220.81
2022-10-26T21:51:50.896Z,97217.34
2022-10-26T21:54:17.513Z,97217.22
2022-10-26T21:56:44.097Z,97222.56
2022-10-26T21:59:10.629Z,97224.81
2022-10-26T22:01:37.354Z,97235.06
2022-10-26T22:04:04.338Z,97235.16
2022-10-26T22:06:30.967Z,97226.78
2022-10-26T22:08:57.505Z,97238.84
2022-10-26T22:11:25.085Z,97245.56
2022-10-26T22:13:52.695Z,97245.13
2022-10-26T22:16:24.310Z,97252.41
2022-10-26T22:18:54.074Z,97257.34
2022-10-26T22:21:22.355Z,97275.03
2022-10-26T22:23:49.009Z,97257.41
2022-10-26T22:26:25.265Z,97255.84
2022-10-26T22:28:54.153Z,97259.34
2022-10-26T22:31:23.559Z,97267.81
2022-10-26T22:34:03.340Z,97255.38
2022-10-26T22:36:33.183Z,97290.69
2022-10-26T22:39:00.798Z,97280.66
2022-10-26T22:41:27.454Z,97289.13
2022-10-26T22:43:54.059Z,97267.13
2022-10-26T22:46:25.871Z,97250.47
2022-10-26T22:48:54.695Z,97224.13
2022-10-26T22:51:23.084Z,97221.31
2022-10-26T22:53:54.434Z,97210.50
2022-10-26T22:56:21.982Z,97221.28
2022-10-26T22:58:48.869Z,97219.16
2022-10-26T23:01:17.651Z,97211.81
2022-10-26T23:03:44.547Z,97204.72
2022-10-26T23:06:16.258Z,97196.44
2022-10-26T23:08:43.399Z,97196.31
2022-10-26T23:11:12.762Z,97186.00
2022-10-26T23:13:39.395Z,97179.97
2022-10-26T23:16:10.917Z,97171.84
2022-10-26T23:18:37.861Z,97199.50
2022-10-26T23:21:06.244Z,97194.06
2022-10-26T23:23:32.924Z,97207.47
2022-10-26T23:26:05.898Z,97224.88
2022-10-26T23:28:33.338Z,97227.19
2022-10-26T23:30:59.907Z,97226.75
2022-10-26T23:33:26.627Z,97196.81
2022-10-26T23:35:53.536Z,97202.13
2022-10-26T23:38:20.477Z,97158.88
2022-10-26T23:40:58.066Z,97169.47
2022-10-26T23:43:25.947Z,97191.06
2022-10-26T23:45:53.290Z,97160.88
2022-10-26T23:48:20.206Z,97174.69
2022-10-26T23:50:48.150Z,97170.91
2022-10-26T23:53:17.102Z,97157.28
2022-10-26T23:55:47.550Z,97152.78
2022-10-26T23:58:15.023Z,97137.41
